Time;durP1;ratioP1;P1;durP2;ratioP2;P2;SDS_P1;SDS_P2;PMS_P1;PMS_P2;Temp;Humidity;BMP_temperature;BMP_pressure;BME280_temperature;BME280_humidity;BME280_pressure;Samples;Min_cycle;Max_cycle;Signal;HPM_P1;HPM_P2
2022/06/28 00:01:43;;;;;;;11.02;2.70;;;;;;;19.53;70.46;99583.38;5162909;28;20104;-70
2022/06/28 00:04:33;;;;;;;7.45;2.45;;;;;;;19.51;69.97;99586.25;5170096;28;20053;-72
2022/06/28 00:07:23;;;;;;;3.70;2.00;;;;;;;19.25;70.95;99584.88;5162020;28;20129;-71
2022/06/28 00:10:16;;;;;;;7.43;2.13;;;;;;;19.28;69.63;99580.16;5161869;28;20448;-70
2022/06/28 00:13:06;;;;;;;6.68;2.15;;;;;;;19.27;69.68;99587.38;5161582;28;20416;-71
2022/06/28 00:16:05;;;;;;;4.55;2.42;;;;;;;19.25;69.37;99594.78;5161815;28;20053;-71
2022/06/28 00:18:55;;;;;;;7.75;2.03;;;;;;;19.25;69.36;99600.16;5160143;28;20104;-70
2022/06/28 00:21:48;;;;;;;8.40;2.38;;;;;;;19.10;69.96;99610.06;5161386;28;20057;-71
2022/06/28 00:24:37;;;;;;;7.28;2.10;;;;;;;18.98;69.85;99602.47;5163739;28;20069;-71
2022/06/28 00:27:27;;;;;;;8.15;1.83;;;;;;;18.93;70.33;99620.97;5161802;28;20420;-71
2022/06/28 00:30:17;;;;;;;7.60;2.03;;;;;;;18.92;71.86;99616.63;5161730;28;20065;-70
2022/06/28 00:33:07;;;;;;;12.55;2.50;;;;;;;18.93;70.71;99620.16;5163639;28;20176;-70
2022/06/28 00:35:59;;;;;;;8.27;2.28;;;;;;;18.99;69.99;99619.41;5160701;28;20141;-71
2022/06/28 00:38:50;;;;;;;8.05;2.30;;;;;;;18.90;70.48;99623.19;5161192;28;20054;-70
2022/06/28 00:41:42;;;;;;;4.72;2.45;;;;;;;18.76;70.48;99588.06;5160310;28;20046;-71
2022/06/28 00:44:33;;;;;;;10.25;2.20;;;;;;;19.02;70.48;99619.06;5158169;28;20154;-71
2022/06/28 00:47:24;;;;;;;5.30;2.58;;;;;;;18.88;71.22;99617.19;5162463;28;20125;-70
2022/06/28 00:50:14;;;;;;;6.97;2.38;;;;;;;18.94;71.03;99619.97;5161003;28;20085;-71
2022/06/28 00:53:12;;;;;;;6.97;2.63;;;;;;;18.95;69.92;99615.44;5156919;28;20056;-71
2022/06/28 00:56:03;;;;;;;4.07;2.30;;;;;;;18.78;70.85;99591.41;5162630;28;20348;-70
2022/06/28 00:58:55;;;;;;;4.03;2.20;;;;;;;18.78;71.00;99604.84;5161288;28;20070;-72
2022/06/28 01:01:45;;;;;;;5.85;2.17;;;;;;;18.83;71.28;99617.72;5163784;28;20065;-71
2022/06/28 01:04:36;;;;;;;4.18;2.28;;;;;;;18.73;70.90;99617.13;5163700;28;20054;-70
2022/06/28 01:07:27;;;;;;;4.00;2.28;;;;;;;18.76;70.41;99614.91;5172065;28;20046;-71
2022/06/28 01:10:18;;;;;;;4.28;2.33;;;;;;;18.76;70.22;99604.16;5160197;28;20062;-70
2022/06/28 01:13:10;;;;;;;4.10;2.50;;;;;;;18.76;69.55;99606.03;5170201;28;20129;-70
2022/06/28 01:16:01;;;;;;;3.05;2.17;;;;;;;18.69;70.13;99600.50;5168566;28;20443;-71
2022/06/28 01:18:53;;;;;;;3.95;2.20;;;;;;;18.73;70.03;99615.28;5160946;28;20050;-71
2022/06/28 01:21:56;;;;;;;6.38;2.35;;;;;;;18.72;69.90;99612.78;5162715;28;20061;-70
2022/06/28 01:24:50;;;;;;;9.93;2.45;;;;;;;18.70;69.96;99609.41;5163041;28;20241;-71
2022/06/28 01:27:45;;;;;;;9.80;2.40;;;;;;;18.66;69.86;99632.28;5159886;28;20062;-71
2022/06/28 01:30:36;;;;;;;17.08;2.20;;;;;;;18.58;70.65;99614.38;5155621;28;20501;-71
2022/06/28 01:33:37;;;;;;;8.20;2.25;;;;;;;18.66;70.52;99621.53;5165098;28;20129;-71
2022/06/28 01:36:30;;;;;;;7.25;2.30;;;;;;;18.62;69.69;99621.06;5159800;28;20053;-70
2022/06/28 01:39:23;;;;;;;6.18;1.92;;;;;;;18.71;70.43;99632.59;5151216;28;20053;-70
2022/06/28 01:42:13;;;;;;;5.90;2.00;;;;;;;18.69;70.07;99634.59;5164748;28;20061;-70
2022/06/28 01:45:06;;;;;;;7.60;2.00;;;;;;;18.67;69.57;99640.13;5159940;28;20149;-70
2022/06/28 01:48:00;;;;;;;5.45;2.75;;;;;;;18.65;70.36;99634.13;5161053;28;20076;-71
2022/06/28 01:50:56;;;;;;;7.60;2.00;;;;;;;18.27;70.32;99561.56;5173414;23;20066;-72
2022/06/28 01:53:46;;;;;;;6.07;2.00;;;;;;;18.53;69.16;99614.06;5116815;29;20047;-73
2022/06/28 01:56:43;;;;;;;5.55;2.20;;;;;;;18.52;70.24;99618.63;5108028;29;20536;-72
2022/06/28 01:59:50;;;;;;;8.18;1.67;;;;;;;18.60;70.18;99635.69;5122897;29;20122;-75
2022/06/28 02:03:00;;;;;;;4.85;2.00;;;;;;;18.48;70.74;99635.28;5119834;28;20051;-72
2022/06/28 02:06:12;;;;;;;6.68;2.10;;;;;;;18.34;70.22;99625.28;5117368;28;20110;-72
2022/06/28 02:09:04;;;;;;;7.35;1.92;;;;;;;18.35;70.91;99624.31;5110978;28;20431;-72
2022/06/28 02:12:04;;;;;;;8.63;2.30;;;;;;;18.36;70.12;99628.66;5125424;28;20587;-73
2022/06/28 02:14:58;;;;;;;6.25;2.05;;;;;;;18.34;70.39;99636.03;5111705;28;20346;-72
2022/06/28 02:17:48;;;;;;;6.97;2.35;;;;;;;18.35;70.82;99635.88;5117819;29;20059;-73
2022/06/28 02:20:39;;;;;;;5.68;2.30;;;;;;;18.31;70.13;99635.41;5129446;28;20055;-72
2022/06/28 02:23:30;;;;;;;9.23;2.05;;;;;;;18.22;70.44;99636.44;5129627;28;20122;-73
2022/06/28 02:26:21;;;;;;;2.83;1.80;;;;;;;18.02;71.12;99619.13;5123990;28;20083;-73
2022/06/28 02:29:11;;;;;;;2.33;1.98;;;;;;;18.18;70.67;99635.16;5124280;28;20043;-73
2022/06/28 02:32:02;;;;;;;9.93;2.15;;;;;;;18.17;70.70;99638.00;5124141;28;20435;-72
2022/06/28 02:41:10;;;;;;;8.27;2.25;;;;;;;17.85;70.57;99621.06;5131563;28;20125;-72
2022/06/28 02:44:00;;;;;;;7.72;2.45;;;;;;;17.83;69.81;99634.66;5113223;28;20054;-72
2022/06/28 02:46:50;;;;;;;5.35;2.30;;;;;;;17.82;70.61;99646.41;5124192;28;20054;-72
2022/06/28 02:49:40;;;;;;;6.93;2.10;;;;;;;17.86;70.85;99646.88;5128087;28;20121;-73
2022/06/28 02:52:30;;;;;;;12.85;2.22;;;;;;;17.84;70.55;99651.56;5128028;28;20047;-72
2022/06/28 02:55:21;;;;;;;5.60;2.13;;;;;;;17.86;70.52;99654.09;5117910;28;20426;-72
2022/06/28 02:58:11;;;;;;;9.52;2.45;;;;;;;17.90;69.50;99661.59;5122519;28;20062;-72
2022/06/28 03:01:01;;;;;;;11.57;2.58;;;;;;;17.58;69.77;99646.44;5110118;28;20054;-72
2022/06/28 03:03:52;;;;;;;6.93;1.85;;;;;;;17.63;70.26;99668.22;5129774;28;20098;-72
2022/06/28 03:06:42;;;;;;;6.15;2.08;;;;;;;17.44;69.64;99652.53;5131871;28;20054;-73
2022/06/28 03:09:32;;;;;;;7.70;2.13;;;;;;;17.53;69.52;99670.28;5122134;28;20387;-73
2022/06/28 03:12:23;;;;;;;7.65;2.33;;;;;;;17.48;70.28;99660.06;5114234;28;20102;-72
2022/06/28 03:15:16;;;;;;;8.25;2.05;;;;;;;17.67;70.12;99664.19;5115849;28;20175;-73
2022/06/28 03:18:12;;;;;;;8.75;2.28;;;;;;;17.60;70.85;99671.25;5117187;29;20055;-73
2022/06/28 03:21:03;;;;;;;15.57;2.53;;;;;;;17.49;70.14;99652.88;5118607;28;20122;-72
2022/06/28 03:23:53;;;;;;;8.43;2.30;;;;;;;17.64;70.25;99659.16;5129559;28;20047;-73
2022/06/28 03:26:45;;;;;;;9.38;2.97;;;;;;;17.74;70.79;99654.44;5120819;29;20543;-71
2022/06/28 03:29:35;;;;;;;4.43;2.05;;;;;;;17.75;70.89;99657.97;5122291;28;20054;-71
2022/06/28 03:32:29;;;;;;;14.63;2.90;;;;;;;17.84;71.03;99660.44;5099720;29;20230;-73
2022/06/28 03:35:20;;;;;;;14.20;2.88;;;;;;;17.90;71.01;99666.97;5115693;28;20458;-74
2022/06/28 03:38:10;;;;;;;13.23;2.97;;;;;;;17.98;71.55;99674.13;5116311;29;20063;-73
2022/06/28 03:41:23;;;;;;;6.78;3.10;;;;;;;18.00;71.86;99675.66;5120237;28;20051;-72
2022/06/28 03:44:19;;;;;;;5.10;2.92;;;;;;;17.92;71.52;99659.59;5113632;28;20510;-70
2022/06/28 03:47:09;;;;;;;11.88;3.65;;;;;;;18.04;72.16;99654.66;5108206;28;20536;-74
2022/06/28 03:50:29;;;;;;;6.68;2.88;;;;;;;18.11;71.24;99682.47;5117844;28;20055;-72
2022/06/28 03:53:48;;;;;;;3.35;3.05;;;;;;;18.18;71.66;99683.47;5139543;28;20409;-70
2022/06/28 03:56:49;;;;;;;6.78;3.00;;;;;;;18.12;71.74;99678.78;5116529;29;20055;-71
2022/06/28 03:59:42;;;;;;;8.13;3.38;;;;;;;18.27;71.32;99679.69;5108583;28;20058;-72
2022/06/28 04:02:33;;;;;;;4.68;3.40;;;;;;;18.39;71.06;99688.19;5113787;28;20527;-72
2022/06/28 04:05:23;;;;;;;8.45;2.63;;;;;;;18.48;70.72;99681.75;5107890;28;20071;-72
2022/06/28 04:08:14;;;;;;;8.02;3.70;;;;;;;18.41;70.38;99678.13;5121593;29;20502;-72
2022/06/28 04:11:16;;;;;;;11.65;3.80;;;;;;;18.35;71.16;99678.81;5131332;28;20050;-72
2022/06/28 04:14:13;;;;;;;5.00;3.10;;;;;;;18.55;70.43;99687.25;5121357;28;20084;-71
2022/06/28 04:17:03;;;;;;;5.72;3.20;;;;;;;18.40;71.24;99686.34;5106535;29;20058;-71
2022/06/28 04:20:10;;;;;;;6.15;3.55;;;;;;;18.47;70.20;99680.06;5118520;28;20048;-74
2022/06/28 04:23:15;;;;;;;11.07;3.65;;;;;;;18.47;71.01;99692.66;5120102;28;20478;-73
2022/06/28 04:26:06;;;;;;;7.55;3.53;;;;;;;18.41;70.75;99679.94;5115805;28;20051;-71
2022/06/28 04:29:02;;;;;;;5.15;3.53;;;;;;;18.29;72.03;99682.22;5120864;28;20417;-71
2022/06/28 04:31:53;;;;;;;7.28;3.97;;;;;;;18.46;71.47;99682.94;5110090;29;20050;-72
2022/06/28 04:34:44;;;;;;;11.18;3.97;;;;;;;18.64;70.37;99688.88;5123079;28;20489;-72
2022/06/28 04:37:34;;;;;;;11.63;3.60;;;;;;;18.54;69.86;99670.31;5120637;28;20511;-71
2022/06/28 04:40:35;;;;;;;9.38;3.67;;;;;;;18.68;69.84;99686.66;5132098;28;20065;-72
2022/06/28 04:43:40;;;;;;;11.30;3.83;;;;;;;18.68;70.65;99686.66;5102281;29;20114;-73
2022/06/28 04:46:30;;;;;;;11.57;3.92;;;;;;;18.64;70.79;99690.69;5116707;28;20061;-72
2022/06/28 04:49:31;;;;;;;9.25;3.50;;;;;;;18.94;69.79;99697.03;5119253;28;20058;-72
2022/06/28 04:52:21;;;;;;;12.85;3.60;;;;;;;19.10;69.48;99694.22;5110115;28;20106;-69
2022/06/28 04:55:17;;;;;;;14.10;4.00;;;;;;;19.35;68.57;99694.00;5112224;28;20643;-70
2022/06/28 04:58:11;;;;;;;7.10;3.60;;;;;;;19.29;68.52;99686.66;5121526;29;20058;-71
2022/06/28 05:01:02;;;;;;;4.43;3.55;;;;;;;19.28;68.35;99685.00;5118871;28;20067;-71
2022/06/28 05:04:03;;;;;;;19.48;3.90;;;;;;;19.16;69.43;99685.44;5108557;28;20528;-73
2022/06/28 05:07:12;;;;;;;9.23;4.38;;;;;;;19.41;68.52;99696.81;5114033;28;20085;-72
2022/06/28 05:10:04;;;;;;;7.13;4.05;;;;;;;19.47;68.78;99692.56;5125792;28;20118;-73
2022/06/28 05:12:57;;;;;;;10.45;4.80;;;;;;;19.21;70.27;99690.28;5131198;28;20077;-73
2022/06/28 05:15:47;;;;;;;6.78;4.47;;;;;;;19.42;69.23;99684.19;5116758;28;20059;-74
2022/06/28 05:18:39;;;;;;;13.38;4.50;;;;;;;19.34;69.21;99693.19;5101542;29;20187;-73
2022/06/28 05:21:33;;;;;;;6.88;3.80;;;;;;;19.36;68.91;99695.66;5119906;28;20084;-74
2022/06/28 05:24:24;;;;;;;12.02;4.78;;;;;;;19.62;68.54;99684.47;5132096;28;20062;-73
2022/06/28 05:27:27;;;;;;;10.65;4.85;;;;;;;19.71;68.78;99678.00;5129396;29;20066;-73
2022/06/28 05:30:18;;;;;;;11.70;5.07;;;;;;;19.86;67.75;99681.50;5123727;28;20053;-73
2022/06/28 05:33:08;;;;;;;12.38;5.07;;;;;;;19.84;68.07;99678.19;5124205;28;20073;-71
2022/06/28 05:35:59;;;;;;;12.20;5.00;;;;;;;19.47;69.17;99674.56;5126611;28;20054;-72
2022/06/28 05:38:49;;;;;;;10.73;5.28;;;;;;;19.87;68.27;99680.50;5124536;29;20054;-71
2022/06/28 05:41:41;;;;;;;14.52;5.68;;;;;;;19.73;68.65;99683.19;5123700;28;20134;-71
2022/06/28 05:44:32;;;;;;;13.73;5.50;;;;;;;19.79;67.92;99677.06;5132225;28;20043;-70
2022/06/28 05:47:23;;;;;;;13.30;5.68;;;;;;;19.91;67.64;99673.72;5110364;29;20051;-70
2022/06/28 05:50:13;;;;;;;12.27;4.95;;;;;;;19.83;68.08;99683.75;5110168;29;20051;-70
2022/06/28 05:53:03;;;;;;;11.60;5.97;;;;;;;19.90;68.47;99676.59;5128976;28;20539;-70
2022/06/28 05:55:53;;;;;;;10.02;5.53;;;;;;;19.98;68.47;99691.81;5126109;28;20367;-72
2022/06/28 05:58:44;;;;;;;15.30;5.93;;;;;;;20.12;68.41;99690.97;5123681;28;20138;-72
2022/06/28 06:01:34;;;;;;;11.70;6.15;;;;;;;20.43;67.71;99674.56;5119501;28;20062;-72
2022/06/28 06:04:25;;;;;;;12.43;5.85;;;;;;;20.45;66.84;99672.47;5122876;28;20070;-71
2022/06/28 06:07:15;;;;;;;9.25;5.30;;;;;;;20.42;66.10;99680.94;5120458;28;20845;-71
2022/06/28 06:10:08;;;;;;;9.63;5.05;;;;;;;19.95;66.59;99664.25;5124016;28;20106;-70
2022/06/28 06:12:58;;;;;;;8.70;5.75;;;;;;;20.20;67.06;99682.78;5120092;28;20077;-70
2022/06/28 06:15:49;;;;;;;7.82;5.75;;;;;;;20.36;66.23;99671.78;5120358;28;20048;-71
2022/06/28 06:18:40;;;;;;;12.43;5.72;;;;;;;20.29;65.42;99659.25;5105434;28;20130;-71
2022/06/28 06:21:30;;;;;;;6.95;5.63;;;;;;;20.61;64.33;99672.25;5103892;28;20070;-72
2022/06/28 06:24:21;;;;;;;6.55;5.38;;;;;;;20.46;64.37;99660.66;5104220;28;20059;-70
2022/06/28 06:27:31;;;;;;;7.18;5.45;;;;;;;20.69;64.34;99651.59;5113760;28;20047;-70
2022/06/28 06:30:23;;;;;;;10.07;5.47;;;;;;;20.89;64.16;99652.59;5097978;28;20062;-71
2022/06/28 06:33:34;;;;;;;7.70;6.13;;;;;;;21.47;61.43;99660.53;5110232;28;20067;-70
2022/06/28 06:36:31;;;;;;;9.57;5.57;;;;;;;21.14;61.87;99660.28;5105671;28;20133;-70
2022/06/28 06:39:24;;;;;;;11.52;5.75;;;;;;;21.28;62.98;99649.38;5111374;28;20126;-71
2022/06/28 06:42:15;;;;;;;8.45;5.45;;;;;;;21.04;63.38;99625.56;5111105;28;20066;-71
2022/06/28 06:45:09;;;;;;;7.65;5.40;;;;;;;21.06;63.35;99645.94;5111586;28;20178;-71
2022/06/28 06:48:00;;;;;;;8.77;5.30;;;;;;;20.98;62.70;99654.13;5104971;28;20603;-73
2022/06/28 06:50:50;;;;;;;8.65;5.88;;;;;;;21.30;62.89;99657.28;5100589;28;20178;-72
2022/06/28 06:53:41;;;;;;;7.80;5.68;;;;;;;21.71;60.38;99649.25;5100774;28;20537;-72
2022/06/28 06:56:32;;;;;;;7.25;4.88;;;;;;;22.65;57.86;99650.41;5100354;28;20054;-71
2022/06/28 06:59:22;;;;;;;6.10;5.20;;;;;;;23.89;54.58;99636.97;5101555;28;20178;-71
2022/06/28 07:02:12;;;;;;;8.40;5.10;;;;;;;24.40;54.31;99635.22;5095370;28;20055;-73
2022/06/28 07:05:11;;;;;;;9.45;4.47;;;;;;;24.00;54.33;99627.31;5089497;28;20105;-71
2022/06/28 07:08:02;;;;;;;7.28;4.35;;;;;;;24.44;53.57;99625.66;5097094;28;20078;-73
2022/06/28 07:10:58;;;;;;;7.57;4.55;;;;;;;24.20;53.42;99613.69;5106599;28;20142;-72
2022/06/28 07:13:48;;;;;;;5.18;3.85;;;;;;;25.52;51.35;99602.81;5108374;28;20062;-71
2022/06/28 07:16:38;;;;;;;7.07;3.65;;;;;;;25.69;50.04;99587.56;5114587;28;20568;-73
2022/06/28 07:19:29;;;;;;;5.45;3.65;;;;;;;25.36;52.04;99573.53;5108071;28;20074;-71
2022/06/28 07:22:19;;;;;;;6.35;3.90;;;;;;;24.48;52.59;99561.00;5100316;28;20545;-70
2022/06/28 07:25:13;;;;;;;4.15;3.75;;;;;;;23.74;53.81;99555.19;5101639;28;20185;-71
2022/06/28 07:28:04;;;;;;;8.48;3.97;;;;;;;23.21;55.46;99566.16;5107189;28;20117;-73
2022/06/28 07:30:54;;;;;;;6.25;3.42;;;;;;;23.44;54.65;99566.53;5092901;28;20074;-70
2022/06/28 07:33:45;;;;;;;5.22;3.35;;;;;;;23.45;55.37;99573.59;5106069;28;20059;-72
2022/06/28 07:36:40;;;;;;;5.90;2.85;;;;;;;23.02;55.90;99578.69;5104590;28;20415;-71
2022/06/28 07:39:31;;;;;;;4.28;2.60;;;;;;;23.18;55.47;99583.66;5110523;28;20206;-70
2022/06/28 07:42:41;;;;;;;3.30;3.00;;;;;;;23.71;54.81;99582.69;5116570;28;20437;-71
2022/06/28 07:45:52;;;;;;;4.38;2.60;;;;;;;25.01;51.58;99579.53;5118359;28;20581;-70
2022/06/28 07:48:43;;;;;;;4.65;2.60;;;;;;;26.16;49.45;99598.69;5108777;28;20047;-71
2022/06/28 07:54:44;;;;;;;5.03;1.60;;;;;;;26.59;46.52;99594.94;5155796;28;20104;-72
2022/06/28 07:57:38;;;;;;;2.05;1.20;;;;;;;27.43;45.16;99589.28;5140605;28;20424;-73
2022/06/28 08:00:29;;;;;;;1.70;1.17;;;;;;;27.69;41.43;99574.31;5123392;28;20054;-72
2022/06/28 08:03:33;;;;;;;1.50;1.10;;;;;;;27.72;43.72;99598.34;5136607;28;20101;-72
2022/06/28 08:06:23;;;;;;;7.55;1.23;;;;;;;28.10;41.81;99595.03;5137556;28;20068;-73
2022/06/28 08:09:17;;;;;;;1.20;1.10;;;;;;;27.93;45.43;99582.44;5127648;28;20725;-72
2022/06/28 08:12:09;;;;;;;3.92;1.50;;;;;;;28.92;41.72;99579.25;5138052;28;20054;-73
2022/06/28 08:15:01;;;;;;;0.90;0.90;;;;;;;28.55;41.29;99574.31;5127702;28;20054;-73
2022/06/28 08:17:53;;;;;;;1.30;1.20;;;;;;;29.00;40.06;99557.84;5146551;28;20093;-73
2022/06/28 08:20:43;;;;;;;1.48;1.15;;;;;;;29.50;41.21;99564.25;5144369;28;20061;-72
2022/06/28 08:23:34;;;;;;;1.30;0.90;;;;;;;29.66;41.31;99581.69;5139657;28;20851;-73
2022/06/28 08:26:25;;;;;;;1.55;1.27;;;;;;;29.19;38.58;99573.94;5139322;28;20053;-73
2022/06/28 08:29:17;;;;;;;3.67;1.30;;;;;;;29.59;42.39;99550.97;5138954;28;20086;-73
2022/06/28 08:32:07;;;;;;;1.95;1.08;;;;;;;28.71;38.97;99534.44;5140801;28;20096;-73
2022/06/28 08:34:58;;;;;;;1.63;1.10;;;;;;;28.45;41.13;99528.59;5139986;28;20069;-73
2022/06/28 08:37:47;;;;;;;5.53;0.95;;;;;;;28.56;42.23;99529.59;5138647;28;20428;-73
2022/06/28 08:40:44;;;;;;;3.97;1.00;;;;;;;28.05;43.01;99536.88;5136969;28;20109;-73
2022/06/28 08:43:34;;;;;;;3.20;1.15;;;;;;;29.58;41.02;99536.50;5135771;28;20112;-73
2022/06/28 08:46:25;;;;;;;4.75;1.23;;;;;;;29.86;38.28;99542.84;5137999;28;22121;-73
2022/06/28 08:49:25;;;;;;;4.10;0.80;;;;;;;30.03;41.26;99543.56;5139116;28;20057;-73
2022/06/28 08:52:17;;;;;;;3.47;0.88;;;;;;;30.37;37.66;99530.53;5140516;28;21304;-73
2022/06/28 08:55:09;;;;;;;3.38;1.10;;;;;;;30.56;39.11;99538.31;5143444;28;20050;-73
2022/06/28 08:58:07;;;;;;;1.13;0.77;;;;;;;30.31;35.34;99528.00;5145582;28;20157;-73
2022/06/28 09:00:58;;;;;;;5.53;0.95;;;;;;;30.15;36.72;99516.06;5144314;28;20065;-73
2022/06/28 09:03:51;;;;;;;1.45;0.63;;;;;;;28.17;35.54;99517.72;5144063;28;20058;-73
2022/06/28 09:06:41;;;;;;;2.40;0.60;;;;;;;28.25;38.62;99512.69;5141288;28;20175;-73
2022/06/28 09:09:31;;;;;;;2.88;0.60;;;;;;;29.24;35.34;99519.41;5140330;28;20546;-73
2022/06/28 09:12:22;;;;;;;5.00;0.90;;;;;;;29.25;34.23;99499.22;5137856;28;20054;-73
2022/06/28 09:15:12;;;;;;;0.55;0.55;;;;;;;30.12;35.34;99520.13;5136466;28;20058;-73
2022/06/28 09:18:03;;;;;;;1.58;0.70;;;;;;;30.12;36.50;99513.84;5134692;28;20046;-73
2022/06/28 09:20:56;;;;;;;1.42;0.63;;;;;;;30.54;33.38;99504.94;5135373;28;20543;-73
2022/06/28 09:23:50;;;;;;;2.17;0.82;;;;;;;30.75;35.88;99516.84;5136871;28;20628;-73
2022/06/28 09:26:40;;;;;;;3.67;0.80;;;;;;;29.96;36.07;99515.59;5142759;28;20062;-73
2022/06/28 09:29:47;;;;;;;2.40;0.88;;;;;;;29.88;34.14;99499.69;5146656;28;20120;-73
2022/06/28 09:32:38;;;;;;;2.63;0.77;;;;;;;30.21;33.80;99493.19;5142646;28;20058;-73
2022/06/28 09:35:30;;;;;;;1.60;0.80;;;;;;;29.83;35.14;99500.44;5148372;28;20377;-73
2022/06/28 09:38:32;;;;;;;1.02;0.73;;;;;;;29.54;38.38;99501.72;5147535;28;20050;-73
2022/06/28 09:41:28;;;;;;;5.03;0.90;;;;;;;29.08;36.40;99518.38;5145976;28;20173;-73
2022/06/28 09:44:25;;;;;;;1.55;0.80;;;;;;;29.87;34.27;99512.53;5147870;28;20453;-71
2022/06/28 09:47:15;;;;;;;0.90;0.80;;;;;;;29.31;34.56;99517.31;5129959;28;20046;-71
2022/06/28 09:50:06;;;;;;;1.02;0.93;;;;;;;27.95;37.96;99510.25;5142718;28;20046;-72
2022/06/28 09:52:59;;;;;;;1.50;0.80;;;;;;;28.66;39.99;99518.81;5124754;28;20051;-69
2022/06/28 09:55:51;;;;;;;5.30;1.10;;;;;;;28.26;38.58;99505.34;5140871;28;20054;-69
2022/06/28 09:58:42;;;;;;;2.85;0.95;;;;;;;27.80;38.16;99499.88;5138164;28;20062;-70
2022/06/28 10:01:33;;;;;;;2.28;1.10;;;;;;;27.94;37.20;99497.69;5138630;28;20085;-70
2022/06/28 10:04:25;;;;;;;1.52;1.10;;;;;;;28.16;39.36;99497.81;5141719;28;20245;-70
2022/06/28 10:07:15;;;;;;;1.30;0.80;;;;;;;27.72;38.89;99485.81;5133525;28;20050;-69
2022/06/28 10:10:08;;;;;;;1.80;0.93;;;;;;;29.10;39.09;99493.53;5148349;28;21767;-69
2022/06/28 10:16:19;;;;;;;1.90;1.13;;;;;;;28.66;38.24;99485.25;5145899;28;20101;-71
2022/06/28 10:19:12;;;;;;;3.40;0.90;;;;;;;29.35;38.57;99473.94;5152522;28;20513;-71
2022/06/28 10:22:07;;;;;;;1.13;0.82;;;;;;;29.27;35.41;99469.72;5150218;28;20184;-70
2022/06/28 10:25:00;;;;;;;1.65;1.00;;;;;;;29.38;36.27;99466.03;5145726;28;20062;-69
2022/06/28 10:27:56;;;;;;;2.30;1.10;;;;;;;29.64;35.42;99469.91;5143706;28;20054;-70
2022/06/28 10:30:46;;;;;;;1.02;0.75;;;;;;;28.80;36.59;99460.09;5142181;28;20042;-71
2022/06/28 10:33:41;;;;;;;3.38;0.95;;;;;;;29.32;37.95;99450.69;5146201;28;20092;-72
2022/06/28 10:36:43;;;;;;;3.45;0.93;;;;;;;29.93;36.07;99461.44;5143989;28;20061;-70
2022/06/28 10:39:34;;;;;;;0.90;0.80;;;;;;;28.99;38.79;99459.78;5144380;28;20073;-70
2022/06/28 10:42:24;;;;;;;2.58;0.88;;;;;;;29.62;39.35;99443.94;5147032;28;21202;-70
2022/06/28 10:45:14;;;;;;;2.85;1.20;;;;;;;28.37;37.98;99457.22;5152270;28;20053;-71
2022/06/28 10:48:10;;;;;;;1.48;1.10;;;;;;;28.76;38.82;99447.19;5151438;28;20062;-70
2022/06/28 10:51:02;;;;;;;1.38;0.90;;;;;;;29.11;36.66;99448.78;5147894;28;20054;-69
2022/06/28 10:54:01;;;;;;;5.75;0.80;;;;;;;28.29;39.34;99439.41;5148416;28;20508;-69
2022/06/28 10:56:52;;;;;;;2.85;0.90;;;;;;;28.32;39.64;99420.63;5143502;28;20619;-70
2022/06/28 10:59:47;;;;;;;1.48;0.80;;;;;;;27.95;40.40;99428.50;5144977;28;20437;-69
2022/06/28 11:02:49;;;;;;;1.42;0.75;;;;;;;28.33;41.53;99432.34;5140503;28;20528;-70
2022/06/28 11:05:52;;;;;;;1.50;0.95;;;;;;;27.93;37.97;99421.63;5143417;28;20493;-70
2022/06/28 11:08:54;;;;;;;1.17;0.75;;;;;;;28.06;39.20;99408.50;5143328;28;20054;-71
2022/06/28 11:12:06;;;;;;;1.45;0.90;;;;;;;28.54;39.70;99406.22;5157742;28;20140;-71
2022/06/28 11:15:02;;;;;;;4.28;1.15;;;;;;;28.75;40.40;99380.88;5159269;28;20046;-71
2022/06/28 11:17:53;;;;;;;2.80;1.05;;;;;;;28.83;38.65;99374.16;5156718;28;20066;-71
2022/06/28 11:20:43;;;;;;;2.25;1.00;;;;;;;28.48;40.47;99377.25;5143360;28;20532;-70
2022/06/28 11:23:41;;;;;;;3.20;1.25;;;;;;;28.83;41.18;99386.97;5151882;28;20145;-69
2022/06/28 11:29:42;;;;;;;2.05;0.90;;;;;;;28.77;39.28;99364.25;5136681;28;20493;-69
2022/06/28 11:32:35;;;;;;;1.00;0.90;;;;;;;28.09;39.77;99312.59;5146386;28;20062;-69
2022/06/28 11:35:28;;;;;;;3.30;0.98;;;;;;;28.79;38.84;99359.38;5149528;28;20073;-69
2022/06/28 11:38:19;;;;;;;2.17;0.98;;;;;;;28.41;36.60;99338.41;5147998;28;20100;-69
2022/06/28 11:41:09;;;;;;;1.90;0.93;;;;;;;28.10;38.14;99352.41;5145529;28;20089;-69
2022/06/28 11:44:01;;;;;;;3.28;0.80;;;;;;;28.64;41.20;99351.81;5141822;28;20141;-70
2022/06/28 11:46:52;;;;;;;3.38;0.80;;;;;;;28.74;39.46;99356.56;5140738;28;20539;-70
2022/06/28 11:49:43;;;;;;;2.75;0.90;;;;;;;28.51;37.98;99355.75;5139718;28;20520;-70
2022/06/28 11:52:36;;;;;;;1.75;0.90;;;;;;;28.37;40.23;99346.22;5139441;28;20069;-70
2022/06/28 11:55:41;;;;;;;2.42;0.90;;;;;;;27.34;39.67;99365.53;5137999;28;20065;-70
2022/06/28 11:58:35;;;;;;;3.45;0.93;;;;;;;27.55;38.10;99352.28;5142932;28;21939;-71
2022/06/28 12:01:27;;;;;;;1.52;0.95;;;;;;;27.78;40.56;99354.91;5144945;28;20058;-71
2022/06/28 12:04:26;;;;;;;1.48;0.80;;;;;;;27.59;37.63;99359.72;5146448;28;20077;-71
2022/06/28 12:07:35;;;;;;;2.15;1.10;;;;;;;28.21;40.14;99347.94;5146383;28;20062;-70
2022/06/28 12:10:29;;;;;;;4.53;1.35;;;;;;;28.18;37.64;99339.41;5146075;28;20576;-71
2022/06/28 12:13:21;;;;;;;4.28;1.00;;;;;;;28.37;40.53;99348.97;5149908;28;20954;-70
2022/06/28 12:16:12;;;;;;;2.88;0.90;;;;;;;27.78;40.04;99354.06;5145290;28;20042;-70
2022/06/28 12:19:07;;;;;;;3.17;1.00;;;;;;;27.94;41.26;99350.50;5145686;28;20175;-70
2022/06/28 12:22:04;;;;;;;1.60;1.05;;;;;;;28.09;39.31;99356.22;5141772;28;20069;-71
2022/06/28 12:24:55;;;;;;;4.72;1.08;;;;;;;28.10;39.62;99357.84;5142520;28;20140;-70
2022/06/28 12:27:47;;;;;;;2.58;1.20;;;;;;;28.03;41.65;99346.28;5141641;28;20379;-70
2022/06/28 12:30:37;;;;;;;17.80;1.35;;;;;;;28.08;40.57;99337.38;5139025;28;20312;-71
2022/06/28 12:33:27;;;;;;;1.45;1.15;;;;;;;27.75;40.00;99322.69;5138277;28;20724;-70
2022/06/28 12:36:18;;;;;;;2.88;1.02;;;;;;;27.79;40.33;99333.94;5137215;28;20058;-70
2022/06/28 12:39:12;;;;;;;1.98;0.80;;;;;;;27.81;39.78;99348.94;5140764;28;20061;-71
2022/06/28 12:42:03;;;;;;;3.55;1.08;;;;;;;27.69;39.81;99334.56;5142596;28;20061;-70
2022/06/28 12:44:54;;;;;;;1.30;0.80;;;;;;;27.95;39.18;99338.56;5149250;28;20181;-70
2022/06/28 12:47:45;;;;;;;5.13;1.00;;;;;;;28.09;40.53;99331.69;5147873;28;20054;-70
2022/06/28 12:50:35;;;;;;;3.38;0.93;;;;;;;28.03;38.37;99327.22;5143619;28;20200;-71
2022/06/28 12:53:25;;;;;;;2.50;0.80;;;;;;;27.55;39.00;99317.72;5141301;28;20128;-70
2022/06/28 12:56:16;;;;;;;1.73;0.85;;;;;;;27.62;38.94;99312.94;5142169;28;20043;-70
2022/06/28 12:59:06;;;;;;;10.65;1.33;;;;;;;28.07;39.08;99309.28;5138407;28;20058;-70
2022/06/28 13:01:58;;;;;;;1.95;0.80;;;;;;;27.98;38.60;99301.78;5138463;28;20066;-70
2022/06/28 13:04:50;;;;;;;1.83;0.98;;;;;;;27.97;37.81;99314.59;5139983;28;20073;-71
2022/06/28 13:07:41;;;;;;;0.88;0.70;;;;;;;27.35;36.35;99301.00;5140427;28;20063;-70
2022/06/28 13:10:32;;;;;;;1.92;0.70;;;;;;;28.16;38.09;99304.22;5147351;28;20095;-70
2022/06/28 13:13:23;;;;;;;1.98;1.08;;;;;;;28.37;37.83;99299.88;5146731;28;20054;-70
2022/06/28 13:16:13;;;;;;;3.40;0.90;;;;;;;27.03;40.16;99298.78;5147849;28;20085;-71
2022/06/28 13:19:04;;;;;;;2.72;0.90;;;;;;;27.64;39.88;99299.06;5144306;28;20065;-70
2022/06/28 13:21:55;;;;;;;1.30;0.80;;;;;;;27.75;38.48;99289.13;5141009;28;20057;-70
2022/06/28 13:24:45;;;;;;;2.15;0.98;;;;;;;27.71;38.11;99282.53;5141469;28;20054;-71
2022/06/28 13:27:35;;;;;;;4.53;0.70;;;;;;;27.69;37.52;99280.06;5141278;28;20080;-71
2022/06/28 13:30:25;;;;;;;1.75;0.70;;;;;;;27.83;37.16;99269.69;5141552;28;20155;-70
2022/06/28 13:33:15;;;;;;;0.82;0.82;;;;;;;27.82;36.95;99257.97;5139103;28;20065;-70
2022/06/28 13:36:06;;;;;;;5.97;1.10;;;;;;;27.17;38.08;99266.69;5141274;28;20054;-69
2022/06/28 13:38:56;;;;;;;2.05;0.70;;;;;;;27.70;38.84;99259.94;5143169;28;20051;-69
2022/06/28 13:41:59;;;;;;;1.30;0.68;;;;;;;28.18;36.44;99242.13;5143835;28;20065;-69
2022/06/28 13:44:49;;;;;;;2.92;0.70;;;;;;;28.06;37.02;99250.41;5148068;28;20062;-69
2022/06/28 13:47:40;;;;;;;0.90;0.70;;;;;;;27.84;36.96;99239.44;5148046;28;20531;-69
2022/06/28 13:50:30;;;;;;;2.45;0.60;;;;;;;26.93;38.06;99246.91;5142675;28;20054;-70